CYRB

Resolute Bay Airport

Resolute Bay, Canada
METAR CYRB 230800Z 34006KT 15SM SCT010 OVC240 M13/M15 A2990 RMK SC4CS4 SLP137
Observed Flight Rules
May-23 @ 08:00 UTC (an hour ago) Visual Flight Rules
Wind Visibility Clouds
340° at 6 knots 15 miles
  • Scattered at 1,000' AGL
  • Overcast at 24,000' AGL
Temperatures Readings
Current -13°C / 9°F
Dewpoint -15°C / 5°F
Humidity 85%
Altimeter 29.9" Hg
Pressure 1013.7 hPa
Elevation 67
METAR CYRB 230800Z 34006KT 15SM SCT010 OVC240 M13/M15 A2990 RMK SC4CS4 SLP137
Observed Flight Rules
May-23 @ 08:00 UTC
(an hour ago)
VFR
Wind Visibility
340° at 6 knots 15 miles
Clouds
  • Scattered at 1,000' AGL
  • Overcast at 24,000' AGL
Temperature Dewpoint
-13°C / 9°F -15°C / 5°F
Humidity Altimeter Pressure
85% 29.9" Hg 1013.7 hPa